createdAt,value
2018-03-06T00:02:09.870Z,38.22
2018-03-06T00:04:40.925Z,40.25
2018-03-06T00:07:11.903Z,40.42
2018-03-06T00:09:42.931Z,40.83
2018-03-06T00:12:14.048Z,37.05
2018-03-06T00:14:45.097Z,39.43
2018-03-06T00:17:16.147Z,38.28
2018-03-06T00:19:47.133Z,39.05
2018-03-06T00:22:18.142Z,38.63
2018-03-06T00:24:49.171Z,36.42
2018-03-06T00:27:20.220Z,37.78
2018-03-06T00:29:51.259Z,36.25
2018-03-06T00:32:22.386Z,36.83
2018-03-06T00:34:53.329Z,38.30
2018-03-06T00:37:24.350Z,37.08
2018-03-06T00:39:55.331Z,37.58
2018-03-06T00:42:26.368Z,38.40
2018-03-06T00:44:57.440Z,35.95
2018-03-06T00:47:28.439Z,38.25
2018-03-06T00:49:59.458Z,41.00
2018-03-06T00:52:30.433Z,39.38
2018-03-06T00:55:01.443Z,38.53
2018-03-06T00:57:32.459Z,39.20
2018-03-06T01:00:03.884Z,40.03
2018-03-06T01:02:34.887Z,40.00
2018-03-06T01:05:05.893Z,38.05
2018-03-06T01:07:36.909Z,42.10
2018-03-06T01:10:07.922Z,36.78
2018-03-06T01:12:38.969Z,38.80
2018-03-06T01:15:09.979Z,38.97
2018-03-06T01:17:41.020Z,38.03
2018-03-06T01:20:12.011Z,35.83
2018-03-06T01:22:43.036Z,36.83
2018-03-06T01:25:14.190Z,37.90
2018-03-06T01:27:45.198Z,35.42
2018-03-06T01:30:16.272Z,35.92
2018-03-06T01:32:47.284Z,36.92
2018-03-06T01:35:18.263Z,37.20
2018-03-06T01:37:49.268Z,34.77
2018-03-06T01:40:20.276Z,36.95
2018-03-06T01:42:51.295Z,35.40
2018-03-06T01:45:22.297Z,33.97
2018-03-06T01:47:53.338Z,34.88
2018-03-06T01:50:24.427Z,35.65
2018-03-06T01:52:55.444Z,35.72
2018-03-06T01:55:26.461Z,35.67
2018-03-06T01:57:57.477Z,37.72
2018-03-06T02:00:28.508Z,35.38
2018-03-06T02:02:59.509Z,36.38
2018-03-06T02:05:30.497Z,35.40
2018-03-06T02:08:01.504Z,35.33
2018-03-06T02:10:32.481Z,35.13
2018-03-06T02:13:03.487Z,37.87
2018-03-06T02:15:34.513Z,36.63
2018-03-06T02:18:05.550Z,33.47
2018-03-06T02:20:37.323Z,34.28
2018-03-06T02:23:08.367Z,34.67
2018-03-06T02:25:39.416Z,34.75
2018-03-06T02:28:10.432Z,36.35
2018-03-06T02:30:41.479Z,34.75
2018-03-06T02:33:12.541Z,35.53
2018-03-06T02:35:43.543Z,36.20
2018-03-06T02:38:14.581Z,34.85
2018-03-06T02:40:45.579Z,34.53
2018-03-06T02:43:16.585Z,34.93
2018-03-06T02:45:47.576Z,36.58
2018-03-06T02:48:18.596Z,34.67
2018-03-06T02:50:49.651Z,33.85
2018-03-06T02:53:20.750Z,34.95
2018-03-06T02:55:51.768Z,36.38
2018-03-06T02:58:22.812Z,35.70
2018-03-06T03:00:53.857Z,35.63
2018-03-06T03:03:24.865Z,36.97
2018-03-06T03:05:55.940Z,34.85
2018-03-06T03:08:26.953Z,36.03
2018-03-06T03:10:57.988Z,35.42
2018-03-06T03:13:29.036Z,33.65
2018-03-06T03:16:00.053Z,35.47
2018-03-06T03:18:31.927Z,34.65
2018-03-06T03:21:02.925Z,34.22
2018-03-06T03:23:33.971Z,37.53
2018-03-06T03:26:05.008Z,35.40
2018-03-06T03:28:36.036Z,38.53
2018-03-06T03:31:07.072Z,37.65
2018-03-06T03:33:38.075Z,36.97
2018-03-06T03:36:09.090Z,37.70
2018-03-06T03:38:40.112Z,38.28
2018-03-06T03:41:11.192Z,39.55
2018-03-06T03:43:42.229Z,35.30
2018-03-06T03:46:13.251Z,37.38
2018-03-06T03:48:44.255Z,36.42
2018-03-06T03:51:15.288Z,37.23
2018-03-06T03:53:46.306Z,38.55
2018-03-06T03:56:17.319Z,36.33
2018-03-06T03:58:48.324Z,37.08
2018-03-06T04:01:19.333Z,36.65
2018-03-06T04:03:50.299Z,37.60
2018-03-06T04:06:21.335Z,37.43
2018-03-06T04:08:52.362Z,36.80
2018-03-06T04:11:23.396Z,37.80
2018-03-06T04:13:54.442Z,37.55
2018-03-06T04:16:25.411Z,38.33
2018-03-06T04:18:56.404Z,36.63
2018-03-06T04:21:27.401Z,36.97
2018-03-06T04:23:58.413Z,38.05
2018-03-06T04:26:29.396Z,38.08
2018-03-06T04:29:00.411Z,37.20
2018-03-06T04:31:31.469Z,38.22
2018-03-06T04:34:02.464Z,37.13
2018-03-06T04:36:33.479Z,37.40
2018-03-06T04:39:04.607Z,37.10
2018-03-06T04:41:35.596Z,36.47
2018-03-06T04:44:06.616Z,34.83
2018-03-06T04:46:37.630Z,36.80
2018-03-06T04:49:08.627Z,37.50
2018-03-06T04:51:39.700Z,35.50
2018-03-06T04:54:10.745Z,37.80
2018-03-06T04:56:41.761Z,36.90
2018-03-06T04:59:12.750Z,36.88
2018-03-06T05:01:43.747Z,36.33
2018-03-06T05:04:14.780Z,37.28
2018-03-06T05:06:45.794Z,37.40
2018-03-06T05:09:16.804Z,39.33
2018-03-06T05:11:47.789Z,37.55
2018-03-06T05:14:18.816Z,37.20
2018-03-06T05:16:49.819Z,38.85
2018-03-06T05:19:20.868Z,40.10
2018-03-06T05:21:51.921Z,37.60
2018-03-06T05:24:22.931Z,38.22
2018-03-06T05:26:54.021Z,38.30
2018-03-06T05:29:25.017Z,37.85
2018-03-06T05:31:56.045Z,37.03
2018-03-06T05:34:27.035Z,36.78
2018-03-06T05:36:58.041Z,37.40
2018-03-06T05:39:29.026Z,35.38
2018-03-06T05:42:00.057Z,39.73
2018-03-06T05:44:31.008Z,36.88
2018-03-06T05:47:02.041Z,37.17
2018-03-06T05:49:33.048Z,37.72
2018-03-06T05:52:04.067Z,37.53
2018-03-06T05:54:35.090Z,38.50
2018-03-06T05:57:06.073Z,37.05
2018-03-06T05:59:37.097Z,35.40
2018-03-06T06:02:08.105Z,37.90
2018-03-06T06:04:39.129Z,37.07
2018-03-06T06:07:10.134Z,37.40
2018-03-06T06:09:41.155Z,37.90
2018-03-06T06:12:13.096Z,39.20
2018-03-06T06:14:44.095Z,39.35
2018-03-06T06:17:15.093Z,37.30
2018-03-06T06:19:46.063Z,38.77
2018-03-06T06:22:17.053Z,38.73
2018-03-06T06:24:48.061Z,36.87
2018-03-06T06:27:19.074Z,37.47
2018-03-06T06:29:50.069Z,36.50
2018-03-06T06:32:21.095Z,39.00
2018-03-06T06:34:52.067Z,37.90
2018-03-06T06:37:23.081Z,38.27
2018-03-06T06:39:54.083Z,38.87
2018-03-06T06:42:25.110Z,38.03
2018-03-06T06:44:56.084Z,37.00
2018-03-06T06:47:27.107Z,36.57
2018-03-06T06:49:58.131Z,39.00
2018-03-06T06:52:29.150Z,36.27
2018-03-06T06:55:00.161Z,38.70
2018-03-06T06:57:31.120Z,37.30
2018-03-06T07:00:02.146Z,40.90
2018-03-06T07:02:33.099Z,37.87
2018-03-06T07:05:04.129Z,37.93
2018-03-06T07:07:35.074Z,35.97
2018-03-06T07:10:06.085Z,38.60
2018-03-06T07:12:37.097Z,39.63
2018-03-06T07:15:08.117Z,39.87
2018-03-06T07:17:39.180Z,39.63
2018-03-06T07:20:10.141Z,39.03
2018-03-06T07:22:41.148Z,38.33
2018-03-06T07:25:12.113Z,38.83
2018-03-06T07:27:43.147Z,37.20
2018-03-06T07:30:14.107Z,39.10
2018-03-06T07:32:45.111Z,40.43
2018-03-06T07:35:16.104Z,37.80
2018-03-06T07:37:47.155Z,38.97
2018-03-06T07:40:18.166Z,39.17
2018-03-06T07:42:49.177Z,39.07
2018-03-06T07:45:20.248Z,39.60
2018-03-06T07:47:51.251Z,36.63
2018-03-06T07:50:22.295Z,35.70
2018-03-06T07:52:53.310Z,37.30
2018-03-06T07:55:24.314Z,40.10
2018-03-06T07:57:55.367Z,37.07
2018-03-06T08:00:26.409Z,36.93
2018-03-06T08:02:57.407Z,39.67
2018-03-06T08:05:28.449Z,39.20
2018-03-06T08:07:59.452Z,37.30
2018-03-06T08:10:30.468Z,39.77
2018-03-06T08:13:01.443Z,38.93
2018-03-06T08:15:32.444Z,40.20
2018-03-06T08:18:03.429Z,37.27
2018-03-06T08:20:34.442Z,41.00
2018-03-06T08:23:05.464Z,37.37
2018-03-06T08:25:36.457Z,40.07
2018-03-06T08:28:07.452Z,38.77
2018-03-06T08:33:32.894Z,37.40
2018-03-06T08:36:03.883Z,37.27
2018-03-06T08:38:34.870Z,35.97
2018-03-06T08:41:05.807Z,37.13
2018-03-06T08:43:36.779Z,38.40
2018-03-06T08:46:07.781Z,38.37
2018-03-06T08:48:38.766Z,37.90
2018-03-06T08:51:09.745Z,35.70
2018-03-06T08:53:40.684Z,37.80
2018-03-06T08:56:11.675Z,37.53
2018-03-06T08:58:42.666Z,37.03
2018-03-06T09:01:13.689Z,36.73
2018-03-06T09:03:44.751Z,37.80
2018-03-06T09:06:15.730Z,38.57
2018-03-06T09:08:46.721Z,39.73
2018-03-06T09:11:17.709Z,37.80
2018-03-06T09:13:48.709Z,37.27
2018-03-06T09:16:19.705Z,37.23
2018-03-06T09:18:50.773Z,37.53
2018-03-06T09:21:21.816Z,37.47
2018-03-06T09:23:52.781Z,37.50
2018-03-06T09:26:23.771Z,38.20
2018-03-06T09:28:54.802Z,37.00
2018-03-06T09:31:25.837Z,38.37
2018-03-06T09:33:56.842Z,37.70
2018-03-06T09:36:27.887Z,37.63
2018-03-06T09:38:58.824Z,38.07
2018-03-06T09:41:29.841Z,39.90
2018-03-06T09:44:00.818Z,36.87
2018-03-06T09:46:31.822Z,39.93
2018-03-06T09:49:02.893Z,35.87
2018-03-06T09:51:33.844Z,37.17
2018-03-06T09:54:04.875Z,37.70
2018-03-06T09:56:35.918Z,36.97
2018-03-06T09:59:06.925Z,38.70
2018-03-06T10:01:37.949Z,38.37
2018-03-06T10:04:08.927Z,38.33
2018-03-06T10:06:39.904Z,38.60
2018-03-06T10:09:10.927Z,39.30
2018-03-06T10:11:41.963Z,37.77
2018-03-06T10:14:12.959Z,36.47
2018-03-06T10:16:43.952Z,37.83
2018-03-06T10:19:14.947Z,38.40
2018-03-06T10:21:45.945Z,38.07
2018-03-06T10:24:16.961Z,39.33
2018-03-06T10:26:47.977Z,39.30
2018-03-06T10:29:19.028Z,37.40
2018-03-06T10:31:50.068Z,37.10
2018-03-06T10:34:21.096Z,38.80
2018-03-06T10:36:52.152Z,37.37
2018-03-06T10:39:23.137Z,37.43
2018-03-06T10:41:54.185Z,39.30
2018-03-06T10:44:25.168Z,39.70
2018-03-06T10:46:56.221Z,38.13
2018-03-06T10:49:27.229Z,37.50
2018-03-06T10:51:58.254Z,38.90
2018-03-06T10:54:29.244Z,39.60
2018-03-06T10:57:00.230Z,40.40
2018-03-06T10:59:31.222Z,40.13
2018-03-06T11:02:03.027Z,39.83
2018-03-06T11:04:34.016Z,39.67
2018-03-06T11:07:05.017Z,36.83
2018-03-06T11:09:36.026Z,38.70
2018-03-06T11:12:06.979Z,38.30
2018-03-06T11:14:37.969Z,37.33
2018-03-06T11:17:08.907Z,38.97
2018-03-06T11:19:39.884Z,39.43
2018-03-06T11:22:10.892Z,37.53
2018-03-06T11:24:41.912Z,36.57
2018-03-06T11:27:12.918Z,39.77
2018-03-06T11:29:43.945Z,39.17
2018-03-06T11:32:14.957Z,37.93
2018-03-06T11:34:45.925Z,36.37
2018-03-06T11:37:16.901Z,38.03
2018-03-06T11:39:47.883Z,40.23
2018-03-06T11:42:18.944Z,37.97
2018-03-06T11:44:49.932Z,39.27
2018-03-06T11:47:20.949Z,38.50
2018-03-06T11:49:51.916Z,38.83
2018-03-06T11:52:22.956Z,40.87
2018-03-06T11:54:53.927Z,38.40
2018-03-06T11:57:24.934Z,39.20
2018-03-06T11:59:55.903Z,38.00
2018-03-06T12:02:26.915Z,37.40
2018-03-06T12:04:57.956Z,41.10
2018-03-06T12:07:28.935Z,39.03
2018-03-06T12:09:59.915Z,38.73
2018-03-06T12:12:30.908Z,38.57
2018-03-06T12:15:01.875Z,39.77
2018-03-06T12:17:32.850Z,42.40
2018-03-06T12:20:03.923Z,37.07
2018-03-06T12:22:34.928Z,38.43
2018-03-06T12:25:05.936Z,38.53
2018-03-06T12:27:36.925Z,36.70
2018-03-06T12:30:07.961Z,37.30
2018-03-06T12:32:38.937Z,37.73
2018-03-06T12:35:09.964Z,41.07
2018-03-06T12:37:41.017Z,40.73
2018-03-06T12:40:12.080Z,39.37
2018-03-06T12:42:43.106Z,38.00
2018-03-06T12:45:14.081Z,40.00
2018-03-06T12:47:45.071Z,38.00
2018-03-06T12:50:16.081Z,39.37
2018-03-06T12:52:47.078Z,39.90
2018-03-06T12:55:18.080Z,38.47
2018-03-06T12:57:49.108Z,40.23
2018-03-06T13:00:20.086Z,39.07
2018-03-06T13:02:51.066Z,39.57
2018-03-06T13:05:22.037Z,39.87
2018-03-06T13:07:53.021Z,39.37
2018-03-06T13:10:24.090Z,39.77
2018-03-06T13:12:55.112Z,38.13
2018-03-06T13:15:26.099Z,39.23
2018-03-06T13:17:57.088Z,37.07
2018-03-06T13:20:28.071Z,38.07
2018-03-06T13:22:59.111Z,37.27
2018-03-06T13:25:30.118Z,36.80
2018-03-06T13:28:01.102Z,37.87
2018-03-06T13:30:32.110Z,35.17
2018-03-06T13:33:03.098Z,36.47
2018-03-06T13:35:34.087Z,36.23
2018-03-06T13:38:05.097Z,35.87
2018-03-06T13:40:36.074Z,36.37
2018-03-06T13:43:07.041Z,37.13
2018-03-06T13:45:38.027Z,40.27
2018-03-06T13:48:09.035Z,39.00
2018-03-06T13:50:40.016Z,39.00
2018-03-06T13:53:11.025Z,40.43
2018-03-06T13:55:42.050Z,39.27
2018-03-06T13:58:13.024Z,41.23
2018-03-06T14:00:44.029Z,38.23
2018-03-06T14:03:15.014Z,39.03
2018-03-06T14:05:46.032Z,38.60
2018-03-06T14:08:17.026Z,40.63
2018-03-06T14:10:48.001Z,37.30
2018-03-06T14:13:19.016Z,36.80
2018-03-06T14:15:50.026Z,39.27
2018-03-06T14:18:21.022Z,40.10
2018-03-06T14:20:52.012Z,42.13
2018-03-06T14:23:23.029Z,39.97
2018-03-06T14:25:54.086Z,40.20
2018-03-06T14:28:25.111Z,40.93
2018-03-06T14:30:56.152Z,38.40
2018-03-06T14:33:27.099Z,41.37
2018-03-06T14:35:58.087Z,43.07
2018-03-06T14:38:29.106Z,42.30
2018-03-06T14:41:00.120Z,42.50
2018-03-06T14:43:31.139Z,44.03
2018-03-06T14:46:02.133Z,44.97
2018-03-06T14:48:33.124Z,46.03
2018-03-06T14:51:04.145Z,46.70
2018-03-06T14:53:35.197Z,44.73
2018-03-06T14:56:06.190Z,44.13
2018-03-06T14:58:37.223Z,44.37
2018-03-06T15:01:08.224Z,41.93
2018-03-06T15:03:39.187Z,44.30
2018-03-06T15:06:10.199Z,44.50
2018-03-06T15:08:41.157Z,44.23
2018-03-06T15:11:12.148Z,43.13
2018-03-06T15:13:43.156Z,44.83
2018-03-06T15:16:14.129Z,45.60
2018-03-06T15:18:45.099Z,45.77
2018-03-06T15:21:16.063Z,46.07
2018-03-06T15:23:47.087Z,48.67
2018-03-06T15:26:18.151Z,47.63
2018-03-06T15:28:49.166Z,48.80
2018-03-06T15:31:20.165Z,49.57
2018-03-06T15:33:51.185Z,50.87
2018-03-06T15:36:22.203Z,47.90
2018-03-06T15:38:53.240Z,51.13
2018-03-06T15:41:24.258Z,50.37
2018-03-06T15:43:55.244Z,50.63
2018-03-06T15:46:26.286Z,52.87
2018-03-06T15:48:57.270Z,53.90
2018-03-06T15:51:28.321Z,54.00
2018-03-06T15:53:59.345Z,52.20
2018-03-06T15:56:30.341Z,52.43
2018-03-06T15:59:01.471Z,53.77
2018-03-06T16:01:32.490Z,53.83
2018-03-06T16:04:03.610Z,54.37
2018-03-06T16:06:34.678Z,52.53
2018-03-06T16:09:05.688Z,54.07
2018-03-06T16:11:36.724Z,53.30
2018-03-06T16:14:07.771Z,54.10
2018-03-06T16:16:38.847Z,52.93
2018-03-06T16:19:09.874Z,54.07
2018-03-06T16:21:40.886Z,53.77
2018-03-06T16:24:11.973Z,55.83
2018-03-06T16:26:43.019Z,54.00
2018-03-06T16:29:14.271Z,48.40
2018-03-06T16:31:45.310Z,52.87
2018-03-06T16:34:16.328Z,54.73
2018-03-06T16:36:47.342Z,53.77
2018-03-06T16:39:18.336Z,55.27
2018-03-06T16:41:49.397Z,55.40
2018-03-06T16:44:20.429Z,56.93
2018-03-06T16:46:51.466Z,56.10
2018-03-06T16:49:22.528Z,58.13
2018-03-06T16:51:53.570Z,57.20
2018-03-06T16:54:24.584Z,58.17
2018-03-06T16:56:55.677Z,58.13
2018-03-06T16:59:26.680Z,57.17
2018-03-06T17:01:57.690Z,59.87
2018-03-06T17:04:28.718Z,58.23
2018-03-06T17:06:59.765Z,58.13
2018-03-06T17:09:30.756Z,79.03
2018-03-06T17:12:01.836Z,64.80
2018-03-06T17:14:32.866Z,58.20
2018-03-06T17:17:03.888Z,58.13
2018-03-06T17:19:34.943Z,60.05
2018-03-06T17:22:06.014Z,57.93
2018-03-06T17:24:37.052Z,59.27
2018-03-06T17:27:08.050Z,62.33
2018-03-06T17:29:39.046Z,59.27
2018-03-06T17:32:10.523Z,60.03
2018-03-06T17:34:41.541Z,58.87
2018-03-06T17:37:12.709Z,67.77
2018-03-06T17:39:43.714Z,59.23
2018-03-06T17:42:14.784Z,60.93
2018-03-06T17:44:45.812Z,59.17
2018-03-06T17:47:16.801Z,64.57
2018-03-06T17:49:47.858Z,62.17
2018-03-06T17:52:18.881Z,59.83
2018-03-06T17:54:49.946Z,59.47
2018-03-06T17:57:20.970Z,59.97
2018-03-06T17:59:52.007Z,61.07
2018-03-06T18:02:23.011Z,61.17
2018-03-06T18:04:54.052Z,61.20
2018-03-06T18:07:25.126Z,63.10
2018-03-06T18:09:56.132Z,64.80
2018-03-06T18:12:27.153Z,62.70
2018-03-06T18:14:58.173Z,63.93
2018-03-06T18:17:29.174Z,62.77
2018-03-06T18:20:00.192Z,64.83
2018-03-06T18:22:31.250Z,63.73
2018-03-06T18:25:02.268Z,70.10
2018-03-06T18:27:33.338Z,66.97
2018-03-06T18:30:04.405Z,68.87
2018-03-06T18:32:35.485Z,67.97
2018-03-06T18:35:06.575Z,69.37
2018-03-06T18:37:37.640Z,67.00
2018-03-06T18:40:08.795Z,66.10
2018-03-06T18:42:39.792Z,73.37
2018-03-06T18:45:10.811Z,67.50
2018-03-06T18:47:41.813Z,66.17
2018-03-06T18:50:25.197Z,69.27
2018-03-06T18:52:56.230Z,62.07
2018-03-06T18:55:27.294Z,62.67
2018-03-06T18:57:58.314Z,68.67
2018-03-06T19:04:00.095Z,63.90
2018-03-06T19:06:35.021Z,68.10
2018-03-06T19:09:06.076Z,67.40
2018-03-06T19:11:37.067Z,67.07
2018-03-06T19:14:08.130Z,64.83
2018-03-06T19:16:39.149Z,64.13
2018-03-06T19:19:10.276Z,64.57
2018-03-06T19:21:41.259Z,65.60
2018-03-06T19:24:12.309Z,67.87
2018-03-06T19:26:43.366Z,67.53
2018-03-06T19:29:14.418Z,67.70
2018-03-06T19:31:45.437Z,70.80
2018-03-06T19:34:16.460Z,68.17
2018-03-06T19:36:47.469Z,67.57
2018-03-06T19:39:18.439Z,65.90
2018-03-06T19:41:49.461Z,68.17
2018-03-06T19:44:20.476Z,71.00
2018-03-06T19:46:51.485Z,64.33
2018-03-06T19:49:22.503Z,61.70
2018-03-06T19:51:53.524Z,66.20
2018-03-06T19:54:24.463Z,66.77
2018-03-06T19:56:55.494Z,68.80
2018-03-06T19:59:26.467Z,72.77
2018-03-06T20:01:57.442Z,64.23
2018-03-06T20:04:28.501Z,65.67
2018-03-06T20:06:59.487Z,66.93
2018-03-06T20:09:30.513Z,64.90
2018-03-06T20:12:01.502Z,67.50
2018-03-06T20:14:38.630Z,68.87
2018-03-06T20:17:09.617Z,67.87
2018-03-06T20:19:40.629Z,70.47
2018-03-06T20:22:11.644Z,65.47
2018-03-06T20:24:48.760Z,63.63
2018-03-06T20:27:19.834Z,65.97
2018-03-06T20:29:50.803Z,70.07
2018-03-06T20:32:28.057Z,63.83
2018-03-06T20:34:59.068Z,69.40
2018-03-06T20:37:30.073Z,66.97
2018-03-06T20:40:07.263Z,67.30
2018-03-06T20:42:38.276Z,71.33
2018-03-06T20:45:09.322Z,65.63
2018-03-06T20:47:40.319Z,72.13
2018-03-06T20:50:11.337Z,69.50
2018-03-06T20:52:48.339Z,70.77
2018-03-06T20:55:19.342Z,68.07
2018-03-06T20:57:50.309Z,70.80
2018-03-06T21:00:21.342Z,73.93
2018-03-06T21:02:52.330Z,73.27
2018-03-06T21:05:23.365Z,70.10
2018-03-06T21:07:54.329Z,70.33
2018-03-06T21:10:25.324Z,73.03
2018-03-06T21:12:56.316Z,71.90
2018-03-06T21:15:27.335Z,74.00
2018-03-06T21:17:58.377Z,73.47
2018-03-06T21:20:29.367Z,79.20
2018-03-06T21:23:00.390Z,74.23
2018-03-06T21:25:31.377Z,72.97
2018-03-06T21:28:02.392Z,72.83
2018-03-06T21:30:33.343Z,77.60
2018-03-06T21:33:04.344Z,76.47
2018-03-06T21:35:35.315Z,81.40
2018-03-06T21:38:06.333Z,77.80
2018-03-06T21:40:37.316Z,77.70
2018-03-06T21:43:08.281Z,77.63
2018-03-06T21:45:39.230Z,75.10
2018-03-06T21:48:10.221Z,75.40
2018-03-06T21:50:41.210Z,77.43
2018-03-06T21:53:12.152Z,78.80
2018-03-06T21:55:43.177Z,76.63
2018-03-06T21:58:14.173Z,75.40
2018-03-06T22:00:45.197Z,79.20
2018-03-06T22:03:16.160Z,73.67
2018-03-06T22:05:47.155Z,80.53
2018-03-06T22:08:18.172Z,70.70
2018-03-06T22:10:49.155Z,75.97
2018-03-06T22:13:20.180Z,74.93
2018-03-06T22:15:51.162Z,73.00
2018-03-06T22:18:22.191Z,72.57
2018-03-06T22:20:53.151Z,71.03
2018-03-06T22:23:24.154Z,73.97
2018-03-06T22:25:55.118Z,71.57
2018-03-06T22:28:26.160Z,73.10
2018-03-06T22:30:57.173Z,74.37
2018-03-06T22:33:28.163Z,72.33
2018-03-06T22:35:59.166Z,74.00
2018-03-06T22:38:30.163Z,73.70
2018-03-06T22:41:01.184Z,77.70
2018-03-06T22:43:32.160Z,74.10
2018-03-06T22:46:03.140Z,75.23
2018-03-06T22:48:34.146Z,74.67
2018-03-06T22:51:05.202Z,75.83
2018-03-06T22:53:36.198Z,79.77
2018-03-06T22:56:07.202Z,76.37
2018-03-06T22:58:38.233Z,75.53
2018-03-06T23:01:09.204Z,75.10
2018-03-06T23:03:40.176Z,75.50
2018-03-06T23:06:11.136Z,73.23
2018-03-06T23:08:42.155Z,73.77
2018-03-06T23:11:13.118Z,69.30
2018-03-06T23:13:44.156Z,73.50
2018-03-06T23:16:15.153Z,70.97
2018-03-06T23:18:46.166Z,70.90
2018-03-06T23:21:17.146Z,71.43
2018-03-06T23:23:48.158Z,64.27
2018-03-06T23:26:19.172Z,72.87
2018-03-06T23:28:50.151Z,69.97
2018-03-06T23:31:21.168Z,72.13
2018-03-06T23:33:52.168Z,73.13
2018-03-06T23:36:23.122Z,69.50
2018-03-06T23:38:54.156Z,65.37
2018-03-06T23:41:25.160Z,69.93
2018-03-06T23:43:56.217Z,70.53
2018-03-06T23:46:27.199Z,67.33
2018-03-06T23:48:58.250Z,69.93
2018-03-06T23:51:29.236Z,67.30
2018-03-06T23:54:00.215Z,67.93
2018-03-06T23:56:31.253Z,66.23
2018-03-06T23:59:02.275Z,67.20
